Terminal Aerodrome Forecast
Issued by NWS

Home | Current Version | Previous Version | Text Only | Print | Product List | Glossary On
Versions: 1 2 3 4 5 6 7 8 9 10 11 12 13 14
000
FTUS45 KPIH 221100
TAFSUN
TAF
KSUN 221120Z 2212/2312 VRB06KT 6SM BR VCSH SCT025 SCT050
      TEMPO 2212/2214 2SM BR BKN025
     FM221900 18008KT P6SM VCTS BKN060CB
     FM230300 32007KT P6SM BKN050=

USA.gov is the U.S. government's official web portal to all federal, state and local government web resources and services.